sensor_id;sensor_type;location;lat;lon;timestamp;P1;durP1;ratioP1;P2;durP2;ratioP2
41739;SDS011;27422;52.444;13.300;2023-06-26T00:02:16;8.85;;;7.25;;
41739;SDS011;27422;52.444;13.300;2023-06-26T00:04:42;12.10;;;7.88;;
41739;SDS011;27422;52.444;13.300;2023-06-26T00:07:07;11.07;;;7.80;;
41739;SDS011;27422;52.444;13.300;2023-06-26T00:09:33;11.27;;;7.72;;
41739;SDS011;27422;52.444;13.300;2023-06-26T00:11:59;12.52;;;7.47;;
41739;SDS011;27422;52.444;13.300;2023-06-26T00:14:25;10.00;;;7.80;;
41739;SDS011;27422;52.444;13.300;2023-06-26T00:16:51;10.55;;;7.53;;
41739;SDS011;27422;52.444;13.300;2023-06-26T00:19:16;11.45;;;7.60;;
41739;SDS011;27422;52.444;13.300;2023-06-26T00:21:42;10.85;;;8.10;;
41739;SDS011;27422;52.444;13.300;2023-06-26T00:24:12;9.88;;;7.32;;
41739;SDS011;27422;52.444;13.300;2023-06-26T00:26:37;10.90;;;7.68;;
41739;SDS011;27422;52.444;13.300;2023-06-26T00:29:03;10.85;;;7.70;;
41739;SDS011;27422;52.444;13.300;2023-06-26T00:31:28;10.07;;;8.07;;
41739;SDS011;27422;52.444;13.300;2023-06-26T00:33:53;11.00;;;8.05;;
41739;SDS011;27422;52.444;13.300;2023-06-26T00:36:19;9.45;;;7.60;;
41739;SDS011;27422;52.444;13.300;2023-06-26T00:38:45;10.40;;;8.30;;
41739;SDS011;27422;52.444;13.300;2023-06-26T00:41:10;10.10;;;7.93;;
41739;SDS011;27422;52.444;13.300;2023-06-26T00:43:37;10.88;;;8.05;;
41739;SDS011;27422;52.444;13.300;2023-06-26T00:46:04;12.10;;;8.77;;
41739;SDS011;27422;52.444;13.300;2023-06-26T00:48:29;10.27;;;7.55;;
41739;SDS011;27422;52.444;13.300;2023-06-26T00:50:58;11.23;;;8.10;;
41739;SDS011;27422;52.444;13.300;2023-06-26T00:53:23;11.02;;;8.05;;
41739;SDS011;27422;52.444;13.300;2023-06-26T00:55:49;11.02;;;7.82;;
41739;SDS011;27422;52.444;13.300;2023-06-26T00:58:14;11.73;;;8.38;;
41739;SDS011;27422;52.444;13.300;2023-06-26T01:00:39;11.88;;;8.45;;
41739;SDS011;27422;52.444;13.300;2023-06-26T01:03:05;10.73;;;8.27;;
41739;SDS011;27422;52.444;13.300;2023-06-26T01:05:30;11.55;;;8.25;;
41739;SDS011;27422;52.444;13.300;2023-06-26T01:07:56;10.73;;;7.85;;
41739;SDS011;27422;52.444;13.300;2023-06-26T01:10:22;10.88;;;8.02;;
41739;SDS011;27422;52.444;13.300;2023-06-26T01:12:49;9.52;;;7.63;;
41739;SDS011;27422;52.444;13.300;2023-06-26T01:15:14;10.00;;;8.25;;
41739;SDS011;27422;52.444;13.300;2023-06-26T01:17:40;10.88;;;8.80;;
41739;SDS011;27422;52.444;13.300;2023-06-26T01:20:10;10.02;;;7.90;;
41739;SDS011;27422;52.444;13.300;2023-06-26T01:22:43;10.40;;;8.35;;
41739;SDS011;27422;52.444;13.300;2023-06-26T01:27:56;10.50;;;8.18;;
41739;SDS011;27422;52.444;13.300;2023-06-26T01:30:22;11.55;;;8.52;;
41739;SDS011;27422;52.444;13.300;2023-06-26T01:32:51;10.98;;;8.80;;
41739;SDS011;27422;52.444;13.300;2023-06-26T01:35:16;10.82;;;8.60;;
41739;SDS011;27422;52.444;13.300;2023-06-26T01:37:42;10.80;;;8.75;;
41739;SDS011;27422;52.444;13.300;2023-06-26T01:40:07;10.60;;;8.57;;
41739;SDS011;27422;52.444;13.300;2023-06-26T01:42:34;10.20;;;8.18;;
41739;SDS011;27422;52.444;13.300;2023-06-26T01:45:10;11.20;;;8.80;;
41739;SDS011;27422;52.444;13.300;2023-06-26T01:47:40;11.50;;;8.88;;
41739;SDS011;27422;52.444;13.300;2023-06-26T01:50:11;10.55;;;8.50;;
41739;SDS011;27422;52.444;13.300;2023-06-26T01:55:10;10.95;;;9.00;;
41739;SDS011;27422;52.444;13.300;2023-06-26T01:57:41;11.52;;;8.70;;
41739;SDS011;27422;52.444;13.300;2023-06-26T02:00:10;10.98;;;8.77;;
41739;SDS011;27422;52.444;13.300;2023-06-26T02:02:36;11.05;;;8.70;;
41739;SDS011;27422;52.444;13.300;2023-06-26T02:05:02;10.63;;;8.70;;
41739;SDS011;27422;52.444;13.300;2023-06-26T02:07:27;12.40;;;9.15;;
41739;SDS011;27422;52.444;13.300;2023-06-26T02:09:53;11.02;;;8.55;;
41739;SDS011;27422;52.444;13.300;2023-06-26T02:12:18;10.63;;;8.55;;
41739;SDS011;27422;52.444;13.300;2023-06-26T02:14:44;11.77;;;8.95;;
41739;SDS011;27422;52.444;13.300;2023-06-26T02:17:09;10.73;;;8.55;;
41739;SDS011;27422;52.444;13.300;2023-06-26T02:19:35;10.95;;;8.77;;
41739;SDS011;27422;52.444;13.300;2023-06-26T02:22:03;10.23;;;8.50;;
41739;SDS011;27422;52.444;13.300;2023-06-26T02:24:29;10.95;;;8.90;;
41739;SDS011;27422;52.444;13.300;2023-06-26T02:26:56;11.82;;;9.13;;
41739;SDS011;27422;52.444;13.300;2023-06-26T02:29:22;11.27;;;8.93;;
41739;SDS011;27422;52.444;13.300;2023-06-26T02:31:48;11.65;;;8.73;;
41739;SDS011;27422;52.444;13.300;2023-06-26T02:34:14;11.07;;;8.48;;
41739;SDS011;27422;52.444;13.300;2023-06-26T02:36:39;11.23;;;8.77;;
41739;SDS011;27422;52.444;13.300;2023-06-26T02:39:08;11.95;;;9.25;;
41739;SDS011;27422;52.444;13.300;2023-06-26T02:41:33;11.93;;;9.18;;
41739;SDS011;27422;52.444;13.300;2023-06-26T02:43:58;11.07;;;8.80;;
41739;SDS011;27422;52.444;13.300;2023-06-26T02:46:24;10.80;;;8.55;;
41739;SDS011;27422;52.444;13.300;2023-06-26T02:48:49;12.82;;;9.57;;
41739;SDS011;27422;52.444;13.300;2023-06-26T02:51:17;10.75;;;9.02;;
41739;SDS011;27422;52.444;13.300;2023-06-26T02:53:43;11.68;;;9.45;;
41739;SDS011;27422;52.444;13.300;2023-06-26T02:56:08;13.80;;;9.45;;
41739;SDS011;27422;52.444;13.300;2023-06-26T02:58:34;11.82;;;9.68;;
41739;SDS011;27422;52.444;13.300;2023-06-26T03:00:59;12.90;;;10.20;;
41739;SDS011;27422;52.444;13.300;2023-06-26T03:03:24;12.90;;;10.88;;
41739;SDS011;27422;52.444;13.300;2023-06-26T03:08:17;13.73;;;9.97;;
41739;SDS011;27422;52.444;13.300;2023-06-26T03:10:43;12.45;;;10.38;;
41739;SDS011;27422;52.444;13.300;2023-06-26T03:13:08;12.10;;;10.20;;
41739;SDS011;27422;52.444;13.300;2023-06-26T03:15:34;11.18;;;9.48;;
41739;SDS011;27422;52.444;13.300;2023-06-26T03:17:59;11.43;;;9.80;;
41739;SDS011;27422;52.444;13.300;2023-06-26T03:20:24;13.13;;;9.80;;
41739;SDS011;27422;52.444;13.300;2023-06-26T03:22:50;11.52;;;9.60;;
41739;SDS011;27422;52.444;13.300;2023-06-26T03:25:15;13.82;;;10.20;;
41739;SDS011;27422;52.444;13.300;2023-06-26T03:27:40;13.00;;;10.02;;
41739;SDS011;27422;52.444;13.300;2023-06-26T03:30:06;14.35;;;10.05;;
41739;SDS011;27422;52.444;13.300;2023-06-26T03:32:32;12.35;;;10.02;;
41739;SDS011;27422;52.444;13.300;2023-06-26T03:34:57;14.02;;;9.65;;
41739;SDS011;27422;52.444;13.300;2023-06-26T03:37:22;11.88;;;9.63;;
41739;SDS011;27422;52.444;13.300;2023-06-26T03:39:48;11.60;;;9.95;;
41739;SDS011;27422;52.444;13.300;2023-06-26T03:42:13;13.25;;;10.75;;
41739;SDS011;27422;52.444;13.300;2023-06-26T03:44:39;12.48;;;10.13;;
41739;SDS011;27422;52.444;13.300;2023-06-26T03:47:04;12.75;;;9.90;;
41739;SDS011;27422;52.444;13.300;2023-06-26T03:49:29;11.68;;;9.68;;
41739;SDS011;27422;52.444;13.300;2023-06-26T03:51:55;11.70;;;9.40;;
41739;SDS011;27422;52.444;13.300;2023-06-26T03:54:20;12.23;;;9.30;;
41739;SDS011;27422;52.444;13.300;2023-06-26T03:56:46;12.50;;;9.30;;
41739;SDS011;27422;52.444;13.300;2023-06-26T03:59:11;12.27;;;9.70;;
41739;SDS011;27422;52.444;13.300;2023-06-26T04:01:37;12.73;;;9.98;;
41739;SDS011;27422;52.444;13.300;2023-06-26T04:04:03;11.68;;;9.68;;
41739;SDS011;27422;52.444;13.300;2023-06-26T04:06:28;11.73;;;9.25;;
41739;SDS011;27422;52.444;13.300;2023-06-26T04:11:21;11.40;;;9.00;;
41739;SDS011;27422;52.444;13.300;2023-06-26T04:13:47;13.00;;;9.27;;
41739;SDS011;27422;52.444;13.300;2023-06-26T04:16:12;11.35;;;9.40;;
41739;SDS011;27422;52.444;13.300;2023-06-26T04:18:37;12.15;;;8.77;;
41739;SDS011;27422;52.444;13.300;2023-06-26T04:21:03;10.85;;;8.95;;
41739;SDS011;27422;52.444;13.300;2023-06-26T04:23:39;12.10;;;9.48;;
41739;SDS011;27422;52.444;13.300;2023-06-26T04:26:05;11.70;;;9.10;;
41739;SDS011;27422;52.444;13.300;2023-06-26T04:28:32;11.40;;;9.02;;
41739;SDS011;27422;52.444;13.300;2023-06-26T04:31:03;11.57;;;9.25;;
41739;SDS011;27422;52.444;13.300;2023-06-26T04:33:28;12.43;;;9.27;;
41739;SDS011;27422;52.444;13.300;2023-06-26T04:35:54;12.00;;;9.55;;
41739;SDS011;27422;52.444;13.300;2023-06-26T04:38:22;11.77;;;8.90;;
41739;SDS011;27422;52.444;13.300;2023-06-26T04:40:48;11.82;;;9.13;;
41739;SDS011;27422;52.444;13.300;2023-06-26T04:43:14;11.88;;;9.05;;
41739;SDS011;27422;52.444;13.300;2023-06-26T04:45:40;11.25;;;9.00;;
41739;SDS011;27422;52.444;13.300;2023-06-26T04:48:05;11.80;;;9.38;;
41739;SDS011;27422;52.444;13.300;2023-06-26T04:50:34;11.10;;;8.85;;
41739;SDS011;27422;52.444;13.300;2023-06-26T04:53:02;12.50;;;9.52;;
41739;SDS011;27422;52.444;13.300;2023-06-26T04:55:27;12.68;;;8.95;;
41739;SDS011;27422;52.444;13.300;2023-06-26T04:57:53;12.25;;;9.00;;
41739;SDS011;27422;52.444;13.300;2023-06-26T05:00:21;10.90;;;8.63;;
41739;SDS011;27422;52.444;13.300;2023-06-26T05:02:54;11.40;;;8.93;;
41739;SDS011;27422;52.444;13.300;2023-06-26T05:05:26;10.43;;;8.25;;
41739;SDS011;27422;52.444;13.300;2023-06-26T05:07:53;9.50;;;7.90;;
41739;SDS011;27422;52.444;13.300;2023-06-26T05:10:22;10.38;;;8.18;;
41739;SDS011;27422;52.444;13.300;2023-06-26T05:12:47;10.45;;;8.20;;
41739;SDS011;27422;52.444;13.300;2023-06-26T05:15:13;10.13;;;7.82;;
41739;SDS011;27422;52.444;13.300;2023-06-26T05:17:38;8.80;;;6.95;;
41739;SDS011;27422;52.444;13.300;2023-06-26T05:20:24;9.73;;;7.57;;
41739;SDS011;27422;52.444;13.300;2023-06-26T05:22:49;9.88;;;7.95;;
41739;SDS011;27422;52.444;13.300;2023-06-26T05:25:15;9.38;;;7.50;;
41739;SDS011;27422;52.444;13.300;2023-06-26T05:27:40;11.00;;;8.50;;
41739;SDS011;27422;52.444;13.300;2023-06-26T05:30:06;10.35;;;8.00;;
41739;SDS011;27422;52.444;13.300;2023-06-26T05:32:35;10.75;;;7.72;;
41739;SDS011;27422;52.444;13.300;2023-06-26T05:35:21;9.95;;;7.97;;
41739;SDS011;27422;52.444;13.300;2023-06-26T05:37:50;12.75;;;7.65;;
41739;SDS011;27422;52.444;13.300;2023-06-26T05:40:16;12.07;;;8.13;;
41739;SDS011;27422;52.444;13.300;2023-06-26T05:42:43;9.20;;;7.75;;
41739;SDS011;27422;52.444;13.300;2023-06-26T05:45:09;10.80;;;7.80;;
41739;SDS011;27422;52.444;13.300;2023-06-26T05:47:35;11.55;;;8.00;;
41739;SDS011;27422;52.444;13.300;2023-06-26T05:50:00;9.32;;;7.45;;
41739;SDS011;27422;52.444;13.300;2023-06-26T05:52:26;8.82;;;7.40;;
41739;SDS011;27422;52.444;13.300;2023-06-26T05:54:55;10.05;;;7.13;;
41739;SDS011;27422;52.444;13.300;2023-06-26T05:57:30;8.65;;;6.78;;
41739;SDS011;27422;52.444;13.300;2023-06-26T05:59:56;9.15;;;7.20;;
41739;SDS011;27422;52.444;13.300;2023-06-26T06:02:22;7.30;;;6.00;;
41739;SDS011;27422;52.444;13.300;2023-06-26T06:04:48;7.57;;;6.15;;
41739;SDS011;27422;52.444;13.300;2023-06-26T06:07:13;8.50;;;5.88;;
41739;SDS011;27422;52.444;13.300;2023-06-26T06:09:39;8.48;;;5.78;;
41739;SDS011;27422;52.444;13.300;2023-06-26T06:12:05;9.57;;;5.63;;
41739;SDS011;27422;52.444;13.300;2023-06-26T06:14:31;7.53;;;5.63;;
41739;SDS011;27422;52.444;13.300;2023-06-26T06:17:00;8.68;;;6.28;;
41739;SDS011;27422;52.444;13.300;2023-06-26T06:19:26;8.43;;;6.22;;
41739;SDS011;27422;52.444;13.300;2023-06-26T06:21:54;7.18;;;5.72;;
41739;SDS011;27422;52.444;13.300;2023-06-26T06:24:20;8.38;;;6.03;;
41739;SDS011;27422;52.444;13.300;2023-06-26T06:26:45;7.35;;;5.78;;
41739;SDS011;27422;52.444;13.300;2023-06-26T06:29:11;9.43;;;6.20;;
41739;SDS011;27422;52.444;13.300;2023-06-26T06:31:36;6.97;;;5.82;;
41739;SDS011;27422;52.444;13.300;2023-06-26T06:34:02;8.75;;;6.13;;
41739;SDS011;27422;52.444;13.300;2023-06-26T06:36:27;7.43;;;5.90;;
41739;SDS011;27422;52.444;13.300;2023-06-26T06:38:52;8.15;;;6.20;;
41739;SDS011;27422;52.444;13.300;2023-06-26T06:41:19;8.88;;;5.50;;
41739;SDS011;27422;52.444;13.300;2023-06-26T06:43:45;8.48;;;5.55;;
41739;SDS011;27422;52.444;13.300;2023-06-26T06:46:10;7.07;;;5.38;;
41739;SDS011;27422;52.444;13.300;2023-06-26T06:48:36;7.25;;;5.30;;
41739;SDS011;27422;52.444;13.300;2023-06-26T06:51:01;6.65;;;5.15;;
41739;SDS011;27422;52.444;13.300;2023-06-26T06:53:27;6.30;;;4.97;;
41739;SDS011;27422;52.444;13.300;2023-06-26T06:55:52;7.05;;;5.07;;
41739;SDS011;27422;52.444;13.300;2023-06-26T06:58:18;8.05;;;5.07;;
41739;SDS011;27422;52.444;13.300;2023-06-26T07:00:47;7.28;;;5.47;;
41739;SDS011;27422;52.444;13.300;2023-06-26T07:03:16;6.00;;;4.50;;
41739;SDS011;27422;52.444;13.300;2023-06-26T07:05:45;6.45;;;4.55;;
41739;SDS011;27422;52.444;13.300;2023-06-26T07:08:10;8.07;;;4.88;;
41739;SDS011;27422;52.444;13.300;2023-06-26T07:10:36;6.57;;;4.65;;
41739;SDS011;27422;52.444;13.300;2023-06-26T07:13:01;5.80;;;4.47;;
41739;SDS011;27422;52.444;13.300;2023-06-26T07:15:27;5.63;;;4.38;;
41739;SDS011;27422;52.444;13.300;2023-06-26T07:17:52;7.78;;;5.00;;
41739;SDS011;27422;52.444;13.300;2023-06-26T07:20:18;6.90;;;4.18;;
41739;SDS011;27422;52.444;13.300;2023-06-26T07:22:43;5.80;;;4.43;;
41739;SDS011;27422;52.444;13.300;2023-06-26T07:25:13;5.50;;;4.10;;
41739;SDS011;27422;52.444;13.300;2023-06-26T07:27:39;5.85;;;4.55;;
41739;SDS011;27422;52.444;13.300;2023-06-26T07:30:14;5.97;;;4.35;;
41739;SDS011;27422;52.444;13.300;2023-06-26T07:32:40;5.90;;;4.40;;
41739;SDS011;27422;52.444;13.300;2023-06-26T07:35:07;6.22;;;4.35;;
41739;SDS011;27422;52.444;13.300;2023-06-26T07:37:32;6.75;;;4.43;;
41739;SDS011;27422;52.444;13.300;2023-06-26T07:39:58;5.30;;;4.10;;
41739;SDS011;27422;52.444;13.300;2023-06-26T07:42:23;6.20;;;4.25;;
41739;SDS011;27422;52.444;13.300;2023-06-26T07:44:48;5.32;;;3.90;;
41739;SDS011;27422;52.444;13.300;2023-06-26T07:47:14;6.65;;;4.55;;
41739;SDS011;27422;52.444;13.300;2023-06-26T07:49:39;5.68;;;4.10;;
41739;SDS011;27422;52.444;13.300;2023-06-26T07:52:05;5.68;;;4.30;;
41739;SDS011;27422;52.444;13.300;2023-06-26T07:54:31;6.72;;;4.00;;
41739;SDS011;27422;52.444;13.300;2023-06-26T07:56:58;6.72;;;3.80;;
41739;SDS011;27422;52.444;13.300;2023-06-26T07:59:25;6.45;;;3.95;;
41739;SDS011;27422;52.444;13.300;2023-06-26T08:01:51;5.25;;;3.90;;
41739;SDS011;27422;52.444;13.300;2023-06-26T08:04:18;5.78;;;4.13;;
41739;SDS011;27422;52.444;13.300;2023-06-26T08:06:51;7.07;;;3.83;;
41739;SDS011;27422;52.444;13.300;2023-06-26T08:09:18;5.93;;;3.60;;
41739;SDS011;27422;52.444;13.300;2023-06-26T08:11:46;7.00;;;4.32;;
41739;SDS011;27422;52.444;13.300;2023-06-26T08:14:12;5.72;;;4.35;;
41739;SDS011;27422;52.444;13.300;2023-06-26T08:16:38;5.25;;;3.88;;
41739;SDS011;27422;52.444;13.300;2023-06-26T08:19:28;4.85;;;3.85;;
41739;SDS011;27422;52.444;13.300;2023-06-26T08:22:18;5.90;;;3.55;;
41739;SDS011;27422;52.444;13.300;2023-06-26T08:25:09;6.28;;;3.67;;
41739;SDS011;27422;52.444;13.300;2023-06-26T08:27:34;6.45;;;4.05;;
41739;SDS011;27422;52.444;13.300;2023-06-26T08:30:00;5.40;;;4.00;;
41739;SDS011;27422;52.444;13.300;2023-06-26T08:32:25;5.85;;;3.92;;
41739;SDS011;27422;52.444;13.300;2023-06-26T08:34:51;5.97;;;3.90;;
41739;SDS011;27422;52.444;13.300;2023-06-26T08:37:16;4.93;;;3.47;;
41739;SDS011;27422;52.444;13.300;2023-06-26T08:39:41;4.95;;;3.78;;
41739;SDS011;27422;52.444;13.300;2023-06-26T08:42:07;4.50;;;3.13;;
41739;SDS011;27422;52.444;13.300;2023-06-26T08:44:32;5.95;;;3.53;;
41739;SDS011;27422;52.444;13.300;2023-06-26T08:46:59;4.55;;;3.30;;
41739;SDS011;27422;52.444;13.300;2023-06-26T08:49:25;4.57;;;2.88;;
41739;SDS011;27422;52.444;13.300;2023-06-26T08:52:17;4.43;;;3.20;;
41739;SDS011;27422;52.444;13.300;2023-06-26T08:54:52;4.57;;;3.33;;
41739;SDS011;27422;52.444;13.300;2023-06-26T08:57:20;4.72;;;2.90;;
41739;SDS011;27422;52.444;13.300;2023-06-26T08:59:48;5.38;;;3.33;;
41739;SDS011;27422;52.444;13.300;2023-06-26T09:02:13;3.80;;;2.75;;
41739;SDS011;27422;52.444;13.300;2023-06-26T09:04:40;4.17;;;2.20;;
41739;SDS011;27422;52.444;13.300;2023-06-26T09:07:05;3.72;;;2.47;;
41739;SDS011;27422;52.444;13.300;2023-06-26T09:09:31;4.00;;;2.60;;
41739;SDS011;27422;52.444;13.300;2023-06-26T09:11:56;6.47;;;3.00;;
41739;SDS011;27422;52.444;13.300;2023-06-26T09:14:22;3.60;;;2.40;;
41739;SDS011;27422;52.444;13.300;2023-06-26T09:16:47;4.43;;;2.40;;
41739;SDS011;27422;52.444;13.300;2023-06-26T09:19:13;3.77;;;2.30;;
41739;SDS011;27422;52.444;13.300;2023-06-26T09:21:39;3.87;;;2.27;;
41739;SDS011;27422;52.444;13.300;2023-06-26T09:24:06;3.72;;;2.60;;
41739;SDS011;27422;52.444;13.300;2023-06-26T09:26:36;3.83;;;2.55;;
41739;SDS011;27422;52.444;13.300;2023-06-26T09:29:03;3.25;;;2.22;;
41739;SDS011;27422;52.444;13.300;2023-06-26T09:33:58;3.77;;;2.03;;
41739;SDS011;27422;52.444;13.300;2023-06-26T09:36:48;3.72;;;2.10;;
41739;SDS011;27422;52.444;13.300;2023-06-26T09:39:18;3.28;;;2.13;;
41739;SDS011;27422;52.444;13.300;2023-06-26T09:41:46;3.75;;;2.10;;
41739;SDS011;27422;52.444;13.300;2023-06-26T09:44:13;6.72;;;1.92;;
41739;SDS011;27422;52.444;13.300;2023-06-26T09:46:39;3.85;;;2.22;;
41739;SDS011;27422;52.444;13.300;2023-06-26T09:49:14;3.85;;;2.17;;
41739;SDS011;27422;52.444;13.300;2023-06-26T09:51:40;3.60;;;2.47;;
41739;SDS011;27422;52.444;13.300;2023-06-26T09:54:09;3.33;;;2.10;;
41739;SDS011;27422;52.444;13.300;2023-06-26T09:56:37;3.70;;;1.85;;
41739;SDS011;27422;52.444;13.300;2023-06-26T09:59:03;3.25;;;2.05;;
41739;SDS011;27422;52.444;13.300;2023-06-26T10:01:32;3.13;;;1.90;;
41739;SDS011;27422;52.444;13.300;2023-06-26T10:03:58;3.85;;;2.05;;
41739;SDS011;27422;52.444;13.300;2023-06-26T10:06:31;4.03;;;2.17;;
41739;SDS011;27422;52.444;13.300;2023-06-26T10:09:02;3.50;;;1.90;;
41739;SDS011;27422;52.444;13.300;2023-06-26T10:11:37;3.05;;;1.90;;
41739;SDS011;27422;52.444;13.300;2023-06-26T10:14:07;3.20;;;1.92;;
41739;SDS011;27422;52.444;13.300;2023-06-26T10:16:32;2.97;;;1.88;;
41739;SDS011;27422;52.444;13.300;2023-06-26T10:19:01;3.03;;;2.00;;
41739;SDS011;27422;52.444;13.300;2023-06-26T10:21:28;3.03;;;1.85;;
41739;SDS011;27422;52.444;13.300;2023-06-26T10:28:46;3.20;;;2.00;;
41739;SDS011;27422;52.444;13.300;2023-06-26T10:31:14;3.00;;;2.00;;
41739;SDS011;27422;52.444;13.300;2023-06-26T10:33:41;3.38;;;1.92;;
41739;SDS011;27422;52.444;13.300;2023-06-26T10:36:27;3.08;;;1.90;;
41739;SDS011;27422;52.444;13.300;2023-06-26T10:38:55;3.63;;;1.85;;
41739;SDS011;27422;52.444;13.300;2023-06-26T10:41:25;3.67;;;2.00;;
41739;SDS011;27422;52.444;13.300;2023-06-26T10:44:05;3.73;;;1.90;;
41739;SDS011;27422;52.444;13.300;2023-06-26T10:46:54;3.35;;;1.88;;
41739;SDS011;27422;52.444;13.300;2023-06-26T10:49:21;3.13;;;1.77;;
41739;SDS011;27422;52.444;13.300;2023-06-26T10:51:51;3.53;;;1.98;;
41739;SDS011;27422;52.444;13.300;2023-06-26T10:54:19;2.67;;;1.73;;
41739;SDS011;27422;52.444;13.300;2023-06-26T10:56:45;3.47;;;1.83;;
41739;SDS011;27422;52.444;13.300;2023-06-26T10:59:16;3.50;;;1.70;;
41739;SDS011;27422;52.444;13.300;2023-06-26T11:01:53;2.88;;;1.70;;
41739;SDS011;27422;52.444;13.300;2023-06-26T11:15:07;3.55;;;2.10;;
41739;SDS011;27422;52.444;13.300;2023-06-26T11:17:42;3.42;;;2.05;;
41739;SDS011;27422;52.444;13.300;2023-06-26T11:22:34;3.47;;;2.20;;
41739;SDS011;27422;52.444;13.300;2023-06-26T11:25:02;3.53;;;2.10;;
41739;SDS011;27422;52.444;13.300;2023-06-26T11:27:46;2.90;;;1.92;;
41739;SDS011;27422;52.444;13.300;2023-06-26T11:30:12;5.40;;;2.00;;
41739;SDS011;27422;52.444;13.300;2023-06-26T11:32:48;4.03;;;3.10;;
41739;SDS011;27422;52.444;13.300;2023-06-26T11:35:21;3.40;;;2.20;;
41739;SDS011;27422;52.444;13.300;2023-06-26T11:37:48;2.95;;;1.90;;
41739;SDS011;27422;52.444;13.300;2023-06-26T11:40:18;4.03;;;2.00;;
41739;SDS011;27422;52.444;13.300;2023-06-26T11:42:44;3.30;;;2.00;;
41739;SDS011;27422;52.444;13.300;2023-06-26T11:45:09;3.15;;;2.03;;
41739;SDS011;27422;52.444;13.300;2023-06-26T11:47:35;3.43;;;2.20;;
41739;SDS011;27422;52.444;13.300;2023-06-26T11:50:04;3.58;;;2.33;;
41739;SDS011;27422;52.444;13.300;2023-06-26T11:52:30;4.32;;;2.22;;
41739;SDS011;27422;52.444;13.300;2023-06-26T11:54:58;3.28;;;2.20;;
41739;SDS011;27422;52.444;13.300;2023-06-26T11:57:23;3.77;;;2.30;;
41739;SDS011;27422;52.444;13.300;2023-06-26T11:59:49;3.60;;;2.27;;
41739;SDS011;27422;52.444;13.300;2023-06-26T12:02:15;3.83;;;2.50;;
41739;SDS011;27422;52.444;13.300;2023-06-26T12:07:08;3.65;;;2.30;;
41739;SDS011;27422;52.444;13.300;2023-06-26T12:09:41;3.70;;;2.50;;
41739;SDS011;27422;52.444;13.300;2023-06-26T12:12:08;3.40;;;2.30;;
41739;SDS011;27422;52.444;13.300;2023-06-26T12:14:35;3.67;;;2.58;;
41739;SDS011;27422;52.444;13.300;2023-06-26T12:17:04;3.80;;;2.70;;
41739;SDS011;27422;52.444;13.300;2023-06-26T12:19:45;5.82;;;2.90;;
41739;SDS011;27422;52.444;13.300;2023-06-26T12:22:15;5.55;;;2.95;;
41739;SDS011;27422;52.444;13.300;2023-06-26T12:24:41;4.38;;;2.78;;
41739;SDS011;27422;52.444;13.300;2023-06-26T12:27:13;4.72;;;2.63;;
41739;SDS011;27422;52.444;13.300;2023-06-26T12:29:41;5.13;;;2.97;;
41739;SDS011;27422;52.444;13.300;2023-06-26T12:32:12;4.60;;;3.10;;
41739;SDS011;27422;52.444;13.300;2023-06-26T12:34:38;4.50;;;3.27;;
41739;SDS011;27422;52.444;13.300;2023-06-26T12:37:05;4.00;;;3.08;;
41739;SDS011;27422;52.444;13.300;2023-06-26T12:42:28;4.47;;;3.30;;
41739;SDS011;27422;52.444;13.300;2023-06-26T12:44:53;5.70;;;3.78;;
41739;SDS011;27422;52.444;13.300;2023-06-26T12:47:25;4.43;;;3.22;;
41739;SDS011;27422;52.444;13.300;2023-06-26T12:49:52;4.80;;;3.10;;
41739;SDS011;27422;52.444;13.300;2023-06-26T12:52:18;4.80;;;3.58;;
41739;SDS011;27422;52.444;13.300;2023-06-26T12:54:45;5.63;;;3.30;;
41739;SDS011;27422;52.444;13.300;2023-06-26T12:57:12;4.70;;;3.55;;
41739;SDS011;27422;52.444;13.300;2023-06-26T12:59:39;4.90;;;3.45;;
41739;SDS011;27422;52.444;13.300;2023-06-26T13:02:08;5.53;;;3.65;;
41739;SDS011;27422;52.444;13.300;2023-06-26T13:04:34;7.20;;;3.55;;
41739;SDS011;27422;52.444;13.300;2023-06-26T13:07:00;5.53;;;3.80;;
41739;SDS011;27422;52.444;13.300;2023-06-26T13:09:26;4.78;;;3.55;;
41739;SDS011;27422;52.444;13.300;2023-06-26T13:11:52;5.43;;;3.50;;
41739;SDS011;27422;52.444;13.300;2023-06-26T13:14:17;5.35;;;3.60;;
41739;SDS011;27422;52.444;13.300;2023-06-26T13:16:42;5.72;;;3.97;;
41739;SDS011;27422;52.444;13.300;2023-06-26T13:19:08;5.97;;;3.92;;
41739;SDS011;27422;52.444;13.300;2023-06-26T13:21:33;4.95;;;3.60;;
41739;SDS011;27422;52.444;13.300;2023-06-26T13:23:59;7.22;;;3.97;;
41739;SDS011;27422;52.444;13.300;2023-06-26T13:26:25;4.57;;;3.50;;
41739;SDS011;27422;52.444;13.300;2023-06-26T13:28:53;5.82;;;3.72;;
41739;SDS011;27422;52.444;13.300;2023-06-26T13:31:19;4.60;;;3.30;;
41739;SDS011;27422;52.444;13.300;2023-06-26T13:33:45;5.05;;;3.40;;
41739;SDS011;27422;52.444;13.300;2023-06-26T13:36:13;7.03;;;3.72;;
41739;SDS011;27422;52.444;13.300;2023-06-26T13:38:39;5.72;;;3.70;;
41739;SDS011;27422;52.444;13.300;2023-06-26T13:41:05;5.78;;;3.40;;
41739;SDS011;27422;52.444;13.300;2023-06-26T13:43:30;5.50;;;3.60;;
41739;SDS011;27422;52.444;13.300;2023-06-26T13:45:56;4.63;;;3.38;;
41739;SDS011;27422;52.444;13.300;2023-06-26T13:48:21;5.32;;;3.30;;
41739;SDS011;27422;52.444;13.300;2023-06-26T13:50:49;4.35;;;3.20;;
41739;SDS011;27422;52.444;13.300;2023-06-26T13:53:14;5.90;;;3.40;;
41739;SDS011;27422;52.444;13.300;2023-06-26T13:55:40;4.72;;;3.40;;
41739;SDS011;27422;52.444;13.300;2023-06-26T13:58:06;5.63;;;3.33;;
41739;SDS011;27422;52.444;13.300;2023-06-26T14:00:35;4.47;;;3.22;;
41739;SDS011;27422;52.444;13.300;2023-06-26T14:03:04;5.10;;;3.50;;
41739;SDS011;27422;52.444;13.300;2023-06-26T14:05:32;5.15;;;3.60;;
41739;SDS011;27422;52.444;13.300;2023-06-26T14:07:57;7.95;;;4.00;;
41739;SDS011;27422;52.444;13.300;2023-06-26T14:10:23;6.53;;;3.83;;
41739;SDS011;27422;52.444;13.300;2023-06-26T14:12:49;5.85;;;3.92;;
41739;SDS011;27422;52.444;13.300;2023-06-26T14:15:14;5.55;;;3.95;;
41739;SDS011;27422;52.444;13.300;2023-06-26T14:17:40;8.95;;;3.53;;
41739;SDS011;27422;52.444;13.300;2023-06-26T14:20:06;8.77;;;3.65;;
41739;SDS011;27422;52.444;13.300;2023-06-26T14:22:41;7.38;;;3.63;;
41739;SDS011;27422;52.444;13.300;2023-06-26T14:25:07;11.35;;;4.78;;
41739;SDS011;27422;52.444;13.300;2023-06-26T14:27:35;8.38;;;4.75;;
41739;SDS011;27422;52.444;13.300;2023-06-26T14:30:02;10.93;;;5.25;;
41739;SDS011;27422;52.444;13.300;2023-06-26T14:32:28;10.82;;;6.30;;
41739;SDS011;27422;52.444;13.300;2023-06-26T14:34:53;10.95;;;5.72;;
41739;SDS011;27422;52.444;13.300;2023-06-26T14:37:19;11.55;;;6.68;;
41739;SDS011;27422;52.444;13.300;2023-06-26T14:39:47;15.38;;;7.07;;
41739;SDS011;27422;52.444;13.300;2023-06-26T14:42:14;11.35;;;7.18;;
41739;SDS011;27422;52.444;13.300;2023-06-26T14:44:39;14.83;;;7.77;;
41739;SDS011;27422;52.444;13.300;2023-06-26T14:47:04;10.48;;;7.28;;
41739;SDS011;27422;52.444;13.300;2023-06-26T14:49:30;10.35;;;7.40;;
41739;SDS011;27422;52.444;13.300;2023-06-26T14:54:23;10.43;;;7.07;;
41739;SDS011;27422;52.444;13.300;2023-06-26T14:56:49;10.48;;;7.05;;
41739;SDS011;27422;52.444;13.300;2023-06-26T14:59:14;10.95;;;7.07;;
41739;SDS011;27422;52.444;13.300;2023-06-26T15:01:40;9.23;;;6.22;;
41739;SDS011;27422;52.444;13.300;2023-06-26T15:04:05;9.27;;;6.55;;
41739;SDS011;27422;52.444;13.300;2023-06-26T15:06:31;8.77;;;5.47;;
41739;SDS011;27422;52.444;13.300;2023-06-26T15:08:59;6.88;;;4.10;;